Terminal Aerodrome Forecast
Issued by NWS

Home | Current Version | Previous Version | Text Only | Print | Product List | Glossary On
Versions: 1 2 3 4 5 6 7 8 9 10 11 12 13 14 15 16
000
FTUS42 KMLB 161726
TAFSFB
TAF
KSFB 161726Z 1618/1718 VRB06KT P6SM VCTS SCT040CB SCT250
      TEMPO 1619/1621 VRB15G30KT 3SM TSRA BKN030CB BKN070
     FM162300 VRB05KT P6SM VCSH SCT040 BKN080 BKN250
     FM170200 VRB02KT P6SM FEW040 SCT250
     FM171400 28004KT P6SM FEW025 SCT160=

USA.gov is the U.S. government's official web portal to all federal, state and local government web resources and services.